Weather History for Rensselaer, IN

Change the Weather History Date:

Tuesday, September 11, 2012

  Actual Average (KVPZ) Record (KVPZ)
Temperature  
Mean Temperature 63 °F 65 °F  
Max Temperature 80 °F 76 °F 97 °F (2013)
Min Temperature 46 °F 55 °F 46 °F (1999)
Degree Days  
Heating Degree Days 2 2  
Month to date heating degree days 17  
Since 1 July heating degree days 34  
Cooling Degree Days 0 3  
Month to date cooling degree days 39  
Year to date cooling degree days 675  
Growing Degree Days 13 (Base 50)    
Moisture  
Dew Point 50 °F    
Average Humidity 64    
Maximum Humidity 100    
Minimum Humidity 30    
Precipitation  
Precipitation 0.00 in 0.10 in 1.34 in (2000)
Month to date precipitation 1.35  
Year to date precipitation 26.89  
Sea Level Pressure  
Sea Level Pressure 30.16 in    
Wind  
Wind Speed 4 mph (South)    
Max Wind Speed 15 mph    
Max Gust Speed 22 mph    
Visibility 10 miles    
Events      
T = Trace of Precipitation, MM = Missing Value Source: NWS Daily Summary

Daily Weather History Graph

Daily Weather History Graph

Search for Another Location

Airport:

Trip Planner

Search our weather history database for the weather conditions in past years. The results will help you decide how hot, cold, wet, or windy it might be!

Date:

Astronomy

Sep. 11, 2012 Rise Set
Actual Time 6:25 AM CDT 7:03 PM CDT
Civil Twilight 5:58 AM CDT 7:31 PM CDT
Nautical Twilight 5:25 AM CDT 8:04 PM CDT
Astronomical Twilight 4:51 AM CDT 8:37 PM CDT
Moon 1:41 AM CDT (9/11) 4:15 PM CDT (9/11)
Length of Visible Light 13h 33m
Length of Day
12h 37m
Waning Crescent, 21% of the Moon is Illuminated
Sep 11
Waning Crescent
Sep 15
New
Sep 22
First Quarter
Sep 29
Full
Oct 8
Last Quarter

Hourly Weather History & Observations

Time (CDT) Temp. Dew Point Humidity Pressure Visibility Wind Dir Wind Speed Gust Speed Precip Events Conditions
12:15 AM 50.0 °F 50.0 °F 100% 30.15 in 10.0 mi Calm Calm - N/A   Clear
12:35 AM 50.0 °F 50.0 °F 100% 30.15 in 10.0 mi Calm Calm - N/A   Clear
12:55 AM 51.8 °F 50.0 °F 94% 30.16 in 10.0 mi Calm Calm - N/A   Clear
1:15 AM 50.0 °F 50.0 °F 100% 30.16 in 10.0 mi Calm Calm - N/A   Clear
1:35 AM 50.0 °F 48.2 °F 94% 30.16 in 10.0 mi Calm Calm - N/A   Clear
1:55 AM 50.0 °F 48.2 °F 94% 30.16 in 10.0 mi Calm Calm - N/A   Clear
2:15 AM 50.0 °F 48.2 °F 94% 30.16 in 10.0 mi Calm Calm - N/A   Clear
2:35 AM 48.2 °F 46.4 °F 93% 30.15 in 10.0 mi Calm Calm - N/A   Clear
2:55 AM 48.2 °F 46.4 °F 93% 30.16 in 10.0 mi Calm Calm - N/A   Clear
3:15 AM 48.2 °F 48.2 °F 100% 30.16 in 10.0 mi Calm Calm - N/A   Clear
3:35 AM 48.2 °F 46.4 °F 93% 30.16 in 10.0 mi Calm Calm - N/A   Clear
3:55 AM 48.2 °F 46.4 °F 93% 30.17 in 10.0 mi Calm Calm - N/A   Clear
4:15 AM 48.2 °F 46.4 °F 93% 30.17 in 10.0 mi Calm Calm - N/A   Clear
4:35 AM 48.2 °F 48.2 °F 100% 30.18 in 10.0 mi Calm Calm - N/A   Clear
4:55 AM 48.2 °F 48.2 °F 100% 30.18 in 10.0 mi Calm Calm - N/A   Clear
5:15 AM 48.2 °F 46.4 °F 93% 30.18 in 10.0 mi Calm Calm - N/A   Clear
5:35 AM 48.2 °F 46.4 °F 93% 30.18 in 10.0 mi Calm Calm - N/A   Clear
5:55 AM 46.4 °F 46.4 °F 100% 30.19 in 10.0 mi Calm Calm - N/A   Clear
6:15 AM 48.2 °F 46.4 °F 93% 30.19 in 10.0 mi Calm Calm - N/A   Clear
6:35 AM 48.2 °F 46.4 °F 93% 30.20 in 10.0 mi Calm Calm - N/A   Clear
6:55 AM 50.0 °F 48.2 °F 94% 30.20 in 10.0 mi Calm Calm - N/A   Clear
7:15 AM 51.8 °F 51.8 °F 100% 30.21 in 10.0 mi Calm Calm - N/A   Clear
7:35 AM 55.4 °F 53.6 °F 94% 30.21 in 10.0 mi Calm Calm - N/A   Clear
7:55 AM 59.0 °F 55.4 °F 88% 30.21 in 10.0 mi South 5.8 mph - N/A   Clear
8:15 AM 60.8 °F 55.4 °F 82% 30.21 in 10.0 mi South 4.6 mph - N/A   Clear
8:35 AM 62.6 °F 57.2 °F 82% 30.21 in 10.0 mi South 5.8 mph - N/A   Clear
8:55 AM 64.4 °F 55.4 °F 73% 30.21 in 10.0 mi SSW 5.8 mph - N/A   Clear
9:15 AM 68.0 °F 55.4 °F 64% 30.21 in 10.0 mi South 5.8 mph - N/A   Clear
9:35 AM 69.8 °F 55.4 °F 60% 30.21 in 10.0 mi SSW 6.9 mph - N/A   Clear
9:55 AM 71.6 °F 53.6 °F 53% 30.21 in 10.0 mi South 11.5 mph - N/A   Clear
10:15 AM 73.4 °F 51.8 °F 47% 30.21 in 10.0 mi SSW 9.2 mph 17.3 mph N/A   Clear
10:35 AM 73.4 °F 51.8 °F 47% 30.21 in 10.0 mi SSW 11.5 mph 17.3 mph N/A   Clear
10:55 AM 75.2 °F 50.0 °F 41% 30.21 in 10.0 mi SSW 11.5 mph 17.3 mph N/A   Clear
11:15 AM 77.0 °F 50.0 °F 39% 30.20 in 10.0 mi SSW 10.4 mph 21.9 mph N/A   Clear
11:35 AM 77.0 °F 50.0 °F 39% 30.20 in 10.0 mi South 15.0 mph 19.6 mph N/A   Clear
11:55 AM 77.0 °F 50.0 °F 39% 30.20 in 10.0 mi SSW 13.8 mph 19.6 mph N/A   Clear
12:15 PM 77.0 °F 50.0 °F 39% 30.19 in 10.0 mi SSW 9.2 mph 17.3 mph N/A   Clear
12:35 PM 78.8 °F 50.0 °F 36% 30.19 in 10.0 mi SSW 10.4 mph 17.3 mph N/A   Clear
12:55 PM 78.8 °F 50.0 °F 36% 30.18 in 10.0 mi SSW 9.2 mph 18.4 mph N/A   Clear
1:15 PM 78.8 °F 48.2 °F 34% 30.18 in 10.0 mi South 9.2 mph 20.7 mph N/A   Clear
1:35 PM 78.8 °F 50.0 °F 36% 30.16 in 10.0 mi South 9.2 mph 17.3 mph N/A   Clear
1:55 PM 80.6 °F 50.0 °F 34% 30.16 in 10.0 mi SSW 9.2 mph - N/A   Clear
2:15 PM 80.6 °F 46.4 °F 30% 30.15 in 10.0 mi SSW 10.4 mph 17.3 mph N/A   Clear
2:35 PM 80.6 °F 48.2 °F 32% 30.14 in 10.0 mi South 10.4 mph 16.1 mph N/A   Clear
2:55 PM 80.6 °F 46.4 °F 30% 30.14 in 10.0 mi South 11.5 mph 16.1 mph N/A   Clear
3:15 PM 80.6 °F 46.4 °F 30% 30.14 in 10.0 mi SSW 13.8 mph 17.3 mph N/A   Clear
3:35 PM 80.6 °F 48.2 °F 32% 30.13 in 10.0 mi South 8.1 mph - N/A   Clear
3:55 PM 80.6 °F 50.0 °F 34% 30.13 in 10.0 mi South 10.4 mph 16.1 mph N/A   Clear
4:15 PM 80.6 °F 48.2 °F 32% 30.12 in 10.0 mi SSE 10.4 mph 17.3 mph N/A   Clear
4:35 PM 80.6 °F 48.2 °F 32% 30.12 in 10.0 mi South 10.4 mph 18.4 mph N/A   Clear
4:55 PM 80.6 °F 46.4 °F 30% 30.12 in 10.0 mi SSE 10.4 mph 16.1 mph N/A   Clear
5:15 PM 80.6 °F 48.2 °F 32% 30.12 in 10.0 mi South 8.1 mph - N/A   Clear
5:35 PM 78.8 °F 46.4 °F 32% 30.12 in 10.0 mi South 10.4 mph - N/A   Clear
5:55 PM 78.8 °F 48.2 °F 34% 30.12 in 10.0 mi South 8.1 mph - N/A   Clear
6:15 PM 77.0 °F 50.0 °F 39% 30.11 in 10.0 mi South 5.8 mph - N/A   Clear
6:35 PM 75.2 °F 50.0 °F 41% 30.12 in 10.0 mi South 5.8 mph - N/A   Clear
6:55 PM 73.4 °F 50.0 °F 44% 30.12 in 10.0 mi South 6.9 mph - N/A   Clear
7:15 PM 71.6 °F 50.0 °F 46% 30.12 in 10.0 mi South 4.6 mph - N/A   Clear
7:35 PM 69.8 °F 51.8 °F 53% 30.12 in 10.0 mi SSE 5.8 mph - N/A   Clear
7:55 PM 68.0 °F 51.8 °F 56% 30.13 in 10.0 mi SSE 5.8 mph - N/A   Clear
8:15 PM 68.0 °F 51.8 °F 56% 30.14 in 10.0 mi South 5.8 mph - N/A   Clear
8:35 PM 68.0 °F 51.8 °F 56% 30.14 in 10.0 mi SSE 5.8 mph - N/A   Clear
8:55 PM 66.2 °F 51.8 °F 60% 30.14 in 10.0 mi SSE 5.8 mph - N/A   Clear
9:15 PM 64.4 °F 51.8 °F 64% 30.14 in 10.0 mi SSE 4.6 mph - N/A   Clear
9:35 PM 64.4 °F 51.8 °F 64% 30.14 in 10.0 mi SSE 5.8 mph - N/A   Clear
9:55 PM 64.4 °F 51.8 °F 64% 30.15 in 10.0 mi SSE 6.9 mph - N/A   Clear
10:15 PM 64.4 °F 51.8 °F 64% 30.15 in 10.0 mi SSE 5.8 mph - N/A   Clear
10:35 PM 64.4 °F 51.8 °F 64% 30.15 in 10.0 mi South 6.9 mph - N/A   Clear
10:55 PM 64.4 °F 51.8 °F 64% 30.16 in 10.0 mi South 4.6 mph - N/A   Clear
11:35 PM 62.6 °F 51.8 °F 68% 30.15 in 10.0 mi South 4.6 mph - N/A   Clear
11:55 PM 62.6 °F 51.8 °F 68% 30.15 in 10.0 mi South 4.6 mph - N/A   Clear